Airfield :
LOGIN :

Register | Disclaimer

   EN    FR    IT 

 










Legend :    VFR   Marginal VFR   IFR   Intensive IFR   Very Intensive IFR
Visi :
Ceiling :
>= 8 km
>= 3000ft
5 to 8 km
1000 to 3000 ft
1500m to 5 km
500 to 1000 ft
800 to 1500m
200 to 500 ft
< 800m
< 200 ft
Symbols :   Thunderstorms  Fog  Heavy snow  Heavy precipitations  Wind > 20 kt
SIGMETs :     Misc.  Thunderstorms  Icing  Turbulence  Mountain Waves  Volcanic Ashes






- Airport Elevation : 485 ft
- IATA code : QSA


LELL - Sabadell

CURRENT METAR :
  • 060430Z AUTO 27004KT 5000 BR NCD 07/06 Q1020

EXPIRED METARs :
  • 060400Z AUTO 00000KT 4900 BR NCD 07/06 Q1020
  • 060330Z AUTO VRB02KT 5000 BR NSC 07/07 Q1020
  • 060300Z AUTO 30003KT 7000 NCD 08/07 Q1020
  • 060230Z AUTO 30003KT 6000 NCD 07/06 Q1020
  • 060200Z AUTO 28004KT 4300 BR NCD 08/07 Q1020

TAF TAF LELL
Valid from the 06 at 03:00 until the 07 at 03:00 UTC


060200Z 0603/0703 VRB04KT 8000 SCT030 TX15/0613Z TN06/0606Z
PROB30
TEMPO 0603/0608 3000 BR BKN014
TEMPO 0612/0617 13010KT
TEMPO 0611/0618 BKN030 FEW035TCU



MET'MAP, your aeronautical weather chart ! - Copyright ORBIFLY December 2007 - Disclaimer

ORBIFLY MET'MAP TEAM :

Programming & Development : Alexandra Zaïnal
Concept & original design : Baudouin d'Aumeries
Assistance for programming : Marc-Olivier Méhu
Technical & hardware support : Manuel Goepfert

Contact : metmap@orbifly.com




SOURCES & CREDITS :

   NOAA